sensor_id;sensor_type;location;lat;lon;timestamp;pressure;altitude;pressure_sealevel;temperature;humidity
33432;BME280;35187;31.882;34.828;2023-04-25T00:01:18;100740;;;21;42
33432;BME280;35187;31.882;34.828;2023-04-25T00:03:48;100740;;;21;42
33432;BME280;35187;31.882;34.828;2023-04-25T00:06:17;100740;;;21;42
33432;BME280;35187;31.882;34.828;2023-04-25T00:08:46;100740;;;21;42
33432;BME280;35187;31.882;34.828;2023-04-25T00:11:15;100740;;;21;41
33432;BME280;35187;31.882;34.828;2023-04-25T00:13:44;100750;;;21;41
33432;BME280;35187;31.882;34.828;2023-04-25T00:16:13;100750;;;21;41
33432;BME280;35187;31.882;34.828;2023-04-25T00:18:42;100750;;;21;41
33432;BME280;35187;31.882;34.828;2023-04-25T00:21:12;100750;;;21;41
33432;BME280;35187;31.882;34.828;2023-04-25T00:23:41;100750;;;21;41
33432;BME280;35187;31.882;34.828;2023-04-25T00:26:10;100750;;;21;41
33432;BME280;35187;31.882;34.828;2023-04-25T00:28:40;100760;;;21;41
33432;BME280;35187;31.882;34.828;2023-04-25T00:31:09;100760;;;21;41
33432;BME280;35187;31.882;34.828;2023-04-25T00:33:38;100760;;;21;41
33432;BME280;35187;31.882;34.828;2023-04-25T00:36:08;100760;;;21;41
33432;BME280;35187;31.882;34.828;2023-04-25T00:38:38;100760;;;21;41
33432;BME280;35187;31.882;34.828;2023-04-25T00:41:07;100760;;;21;41
33432;BME280;35187;31.882;34.828;2023-04-25T00:43:37;100760;;;21;41
33432;BME280;35187;31.882;34.828;2023-04-25T00:46:06;100760;;;21;41
33432;BME280;35187;31.882;34.828;2023-04-25T00:48:35;100760;;;21;41
33432;BME280;35187;31.882;34.828;2023-04-25T00:51:04;100760;;;21;41
33432;BME280;35187;31.882;34.828;2023-04-25T00:53:35;100760;;;21;41
33432;BME280;35187;31.882;34.828;2023-04-25T00:56:04;100760;;;21;41
33432;BME280;35187;31.882;34.828;2023-04-25T00:58:34;100760;;;21;41
33432;BME280;35187;31.882;34.828;2023-04-25T01:01:03;100760;;;21;41
33432;BME280;35187;31.882;34.828;2023-04-25T01:03:33;100750;;;21;41
33432;BME280;35187;31.882;34.828;2023-04-25T01:06:03;100750;;;21;40
33432;BME280;35187;31.882;34.828;2023-04-25T01:08:32;100750;;;21;40
33432;BME280;35187;31.882;34.828;2023-04-25T01:11:02;100760;;;21;40
33432;BME280;35187;31.882;34.828;2023-04-25T01:13:32;100760;;;21;41
33432;BME280;35187;31.882;34.828;2023-04-25T01:16:03;100760;;;21;40
33432;BME280;35187;31.882;34.828;2023-04-25T01:18:31;100760;;;21;40
33432;BME280;35187;31.882;34.828;2023-04-25T01:21:07;100760;;;21;40
33432;BME280;35187;31.882;34.828;2023-04-25T01:23:36;100760;;;21;40
33432;BME280;35187;31.882;34.828;2023-04-25T01:26:11;100760;;;21;40
33432;BME280;35187;31.882;34.828;2023-04-25T01:28:40;100760;;;21;40
33432;BME280;35187;31.882;34.828;2023-04-25T01:31:10;100770;;;21;40
33432;BME280;35187;31.882;34.828;2023-04-25T01:33:39;100770;;;21;40
33432;BME280;35187;31.882;34.828;2023-04-25T01:36:09;100760;;;21;40
33432;BME280;35187;31.882;34.828;2023-04-25T01:38:40;100760;;;21;40
33432;BME280;35187;31.882;34.828;2023-04-25T01:41:10;100760;;;21;40
33432;BME280;35187;31.882;34.828;2023-04-25T01:43:40;100770;;;21;40
33432;BME280;35187;31.882;34.828;2023-04-25T01:46:11;100770;;;21;40
33432;BME280;35187;31.882;34.828;2023-04-25T01:48:40;100770;;;21;40
33432;BME280;35187;31.882;34.828;2023-04-25T01:51:14;100770;;;21;40
33432;BME280;35187;31.882;34.828;2023-04-25T01:53:43;100770;;;21;40
33432;BME280;35187;31.882;34.828;2023-04-25T01:56:13;100780;;;21;40
33432;BME280;35187;31.882;34.828;2023-04-25T01:58:42;100780;;;21;40
33432;BME280;35187;31.882;34.828;2023-04-25T02:01:10;100780;;;21;40
33432;BME280;35187;31.882;34.828;2023-04-25T02:03:39;100780;;;21;39
33432;BME280;35187;31.882;34.828;2023-04-25T02:06:08;100780;;;21;39
33432;BME280;35187;31.882;34.828;2023-04-25T02:08:37;100780;;;21;39
33432;BME280;35187;31.882;34.828;2023-04-25T02:11:11;100780;;;21;39
33432;BME280;35187;31.882;34.828;2023-04-25T02:13:40;100780;;;21;39
33432;BME280;35187;31.882;34.828;2023-04-25T02:16:09;100780;;;21;39
33432;BME280;35187;31.882;34.828;2023-04-25T02:18:39;100790;;;21;39
33432;BME280;35187;31.882;34.828;2023-04-25T02:21:08;100790;;;21;39
33432;BME280;35187;31.882;34.828;2023-04-25T02:23:37;100790;;;21;39
33432;BME280;35187;31.882;34.828;2023-04-25T02:26:06;100790;;;21;39
33432;BME280;35187;31.882;34.828;2023-04-25T02:28:35;100790;;;21;39
33432;BME280;35187;31.882;34.828;2023-04-25T02:31:04;100790;;;21;39
33432;BME280;35187;31.882;34.828;2023-04-25T02:33:38;100790;;;21;39
33432;BME280;35187;31.882;34.828;2023-04-25T02:36:07;100790;;;21;39
33432;BME280;35187;31.882;34.828;2023-04-25T02:38:36;100790;;;21;39
33432;BME280;35187;31.882;34.828;2023-04-25T02:41:05;100780;;;21;39
33432;BME280;35187;31.882;34.828;2023-04-25T02:43:34;100790;;;21;39
33432;BME280;35187;31.882;34.828;2023-04-25T02:46:03;100790;;;21;39
33432;BME280;35187;31.882;34.828;2023-04-25T02:48:32;100790;;;21;39
33432;BME280;35187;31.882;34.828;2023-04-25T02:51:06;100790;;;21;39
33432;BME280;35187;31.882;34.828;2023-04-25T02:53:35;100800;;;21;39
33432;BME280;35187;31.882;34.828;2023-04-25T02:56:04;100800;;;21;39
33432;BME280;35187;31.882;34.828;2023-04-25T02:58:34;100800;;;21;39
33432;BME280;35187;31.882;34.828;2023-04-25T03:01:03;100800;;;21;39
33432;BME280;35187;31.882;34.828;2023-04-25T03:03:31;100800;;;21;39
33432;BME280;35187;31.882;34.828;2023-04-25T03:06:06;100800;;;21;39
33432;BME280;35187;31.882;34.828;2023-04-25T03:08:35;100800;;;21;39
33432;BME280;35187;31.882;34.828;2023-04-25T03:11:04;100800;;;21;39
33432;BME280;35187;31.882;34.828;2023-04-25T03:13:38;100800;;;21;39
33432;BME280;35187;31.882;34.828;2023-04-25T03:16:07;100800;;;21;39
33432;BME280;35187;31.882;34.828;2023-04-25T03:18:36;100800;;;21;39
33432;BME280;35187;31.882;34.828;2023-04-25T03:21:10;100800;;;21;39
33432;BME280;35187;31.882;34.828;2023-04-25T03:23:39;100800;;;21;39
33432;BME280;35187;31.882;34.828;2023-04-25T03:26:08;100800;;;21;39
33432;BME280;35187;31.882;34.828;2023-04-25T03:28:37;100800;;;21;39
33432;BME280;35187;31.882;34.828;2023-04-25T03:31:13;100800;;;21;39
33432;BME280;35187;31.882;34.828;2023-04-25T03:33:42;100800;;;21;39
33432;BME280;35187;31.882;34.828;2023-04-25T03:36:11;100800;;;21;39
33432;BME280;35187;31.882;34.828;2023-04-25T03:38:40;100800;;;21;39
33432;BME280;35187;31.882;34.828;2023-04-25T03:41:14;100800;;;21;39
33432;BME280;35187;31.882;34.828;2023-04-25T03:43:43;100790;;;21;38
33432;BME280;35187;31.882;34.828;2023-04-25T03:46:13;100790;;;21;39
33432;BME280;35187;31.882;34.828;2023-04-25T03:48:42;100790;;;21;39
33432;BME280;35187;31.882;34.828;2023-04-25T03:51:12;100790;;;21;38
33432;BME280;35187;31.882;34.828;2023-04-25T03:53:41;100790;;;21;39
33432;BME280;35187;31.882;34.828;2023-04-25T03:56:10;100790;;;21;38
33432;BME280;35187;31.882;34.828;2023-04-25T03:58:40;100790;;;21;39
33432;BME280;35187;31.882;34.828;2023-04-25T04:01:09;100800;;;21;39
33432;BME280;35187;31.882;34.828;2023-04-25T04:03:38;100800;;;21;39
33432;BME280;35187;31.882;34.828;2023-04-25T04:06:12;100800;;;21;38
33432;BME280;35187;31.882;34.828;2023-04-25T04:08:41;100800;;;21;39
33432;BME280;35187;31.882;34.828;2023-04-25T04:11:10;100800;;;21;38
33432;BME280;35187;31.882;34.828;2023-04-25T04:13:38;100800;;;21;39
33432;BME280;35187;31.882;34.828;2023-04-25T04:16:07;100800;;;21;39
33432;BME280;35187;31.882;34.828;2023-04-25T04:18:36;100800;;;21;39
33432;BME280;35187;31.882;34.828;2023-04-25T04:21:05;100810;;;21;39
33432;BME280;35187;31.882;34.828;2023-04-25T04:23:33;100810;;;21;39
33432;BME280;35187;31.882;34.828;2023-04-25T04:26:03;100810;;;21;39
33432;BME280;35187;31.882;34.828;2023-04-25T04:28:32;100800;;;21;39
33432;BME280;35187;31.882;34.828;2023-04-25T04:31:07;100810;;;21;39
33432;BME280;35187;31.882;34.828;2023-04-25T04:33:41;100800;;;21;39
33432;BME280;35187;31.882;34.828;2023-04-25T04:36:10;100800;;;21;39
33432;BME280;35187;31.882;34.828;2023-04-25T04:38:39;100810;;;21;39
33432;BME280;35187;31.882;34.828;2023-04-25T04:41:08;100820;;;21;40
33432;BME280;35187;31.882;34.828;2023-04-25T04:43:37;100820;;;21;40
33432;BME280;35187;31.882;34.828;2023-04-25T04:46:06;100820;;;20;40
33432;BME280;35187;31.882;34.828;2023-04-25T04:48:35;100820;;;20;40
33432;BME280;35187;31.882;34.828;2023-04-25T04:51:04;100820;;;20;40
33432;BME280;35187;31.882;34.828;2023-04-25T04:53:33;100820;;;20;40
33432;BME280;35187;31.882;34.828;2023-04-25T04:56:02;100820;;;20;40
33432;BME280;35187;31.882;34.828;2023-04-25T04:58:31;100820;;;20;40
33432;BME280;35187;31.882;34.828;2023-04-25T05:01:01;100820;;;21;40
33432;BME280;35187;31.882;34.828;2023-04-25T05:03:36;100820;;;21;41
33432;BME280;35187;31.882;34.828;2023-04-25T05:06:05;100820;;;20;41
33432;BME280;35187;31.882;34.828;2023-04-25T05:08:34;100820;;;20;41
33432;BME280;35187;31.882;34.828;2023-04-25T05:11:13;100820;;;20;41
33432;BME280;35187;31.882;34.828;2023-04-25T05:13:42;100820;;;21;41
33432;BME280;35187;31.882;34.828;2023-04-25T05:16:17;100830;;;20;41
33432;BME280;35187;31.882;34.828;2023-04-25T05:18:46;100830;;;20;41
33432;BME280;35187;31.882;34.828;2023-04-25T05:21:15;100830;;;20;42
33432;BME280;35187;31.882;34.828;2023-04-25T05:23:44;100830;;;20;42
33432;BME280;35187;31.882;34.828;2023-04-25T05:26:14;100830;;;20;42
33432;BME280;35187;31.882;34.828;2023-04-25T05:28:43;100830;;;20;42
33432;BME280;35187;31.882;34.828;2023-04-25T05:31:13;100830;;;20;42
33432;BME280;35187;31.882;34.828;2023-04-25T05:33:43;100830;;;20;42
33432;BME280;35187;31.882;34.828;2023-04-25T05:36:18;100830;;;20;42
33432;BME280;35187;31.882;34.828;2023-04-25T05:38:47;100830;;;21;42
33432;BME280;35187;31.882;34.828;2023-04-25T05:41:16;100830;;;21;42
33432;BME280;35187;31.882;34.828;2023-04-25T05:43:45;100830;;;20;42
33432;BME280;35187;31.882;34.828;2023-04-25T05:46:14;100840;;;20;42
33432;BME280;35187;31.882;34.828;2023-04-25T05:48:42;100840;;;21;42
33432;BME280;35187;31.882;34.828;2023-04-25T05:51:11;100830;;;21;42
33432;BME280;35187;31.882;34.828;2023-04-25T05:53:40;100830;;;21;42
33432;BME280;35187;31.882;34.828;2023-04-25T05:56:09;100840;;;21;42
33432;BME280;35187;31.882;34.828;2023-04-25T05:58:38;100840;;;21;42
33432;BME280;35187;31.882;34.828;2023-04-25T06:01:07;100840;;;21;42
33432;BME280;35187;31.882;34.828;2023-04-25T06:03:36;100840;;;21;42
33432;BME280;35187;31.882;34.828;2023-04-25T06:06:05;100840;;;21;42
33432;BME280;35187;31.882;34.828;2023-04-25T06:08:33;100840;;;20;42
33432;BME280;35187;31.882;34.828;2023-04-25T06:11:02;100840;;;21;42
33432;BME280;35187;31.882;34.828;2023-04-25T06:13:31;100830;;;21;42
33432;BME280;35187;31.882;34.828;2023-04-25T06:16:00;100830;;;20;42
33432;BME280;35187;31.882;34.828;2023-04-25T06:18:29;100830;;;21;42
33432;BME280;35187;31.882;34.828;2023-04-25T06:20:58;100830;;;21;42
33432;BME280;35187;31.882;34.828;2023-04-25T06:23:26;100820;;;21;42
33432;BME280;35187;31.882;34.828;2023-04-25T06:25:55;100830;;;21;42
33432;BME280;35187;31.882;34.828;2023-04-25T06:28:25;100830;;;21;42
33432;BME280;35187;31.882;34.828;2023-04-25T06:30:53;100830;;;21;42
33432;BME280;35187;31.882;34.828;2023-04-25T06:33:23;100830;;;21;42
33432;BME280;35187;31.882;34.828;2023-04-25T06:35:52;100830;;;21;42
33432;BME280;35187;31.882;34.828;2023-04-25T06:38:20;100830;;;21;42
33432;BME280;35187;31.882;34.828;2023-04-25T06:40:49;100830;;;21;42
33432;BME280;35187;31.882;34.828;2023-04-25T06:43:18;100830;;;21;42
33432;BME280;35187;31.882;34.828;2023-04-25T06:45:47;100830;;;21;41
33432;BME280;35187;31.882;34.828;2023-04-25T06:48:17;100830;;;21;42
33432;BME280;35187;31.882;34.828;2023-04-25T06:50:47;100830;;;21;42
33432;BME280;35187;31.882;34.828;2023-04-25T06:53:15;100830;;;21;42
33432;BME280;35187;31.882;34.828;2023-04-25T06:55:44;100830;;;21;42
33432;BME280;35187;31.882;34.828;2023-04-25T06:58:13;100830;;;21;42
33432;BME280;35187;31.882;34.828;2023-04-25T07:00:42;100840;;;20;42
33432;BME280;35187;31.882;34.828;2023-04-25T07:03:11;100840;;;21;42
33432;BME280;35187;31.882;34.828;2023-04-25T07:05:40;100830;;;21;42
33432;BME280;35187;31.882;34.828;2023-04-25T07:08:08;100830;;;21;42
33432;BME280;35187;31.882;34.828;2023-04-25T07:10:37;100830;;;20;41
33432;BME280;35187;31.882;34.828;2023-04-25T07:13:06;100830;;;21;41
33432;BME280;35187;31.882;34.828;2023-04-25T07:15:34;100830;;;21;42
33432;BME280;35187;31.882;34.828;2023-04-25T07:18:03;100830;;;21;42
33432;BME280;35187;31.882;34.828;2023-04-25T07:20:32;100830;;;21;42
33432;BME280;35187;31.882;34.828;2023-04-25T07:23:04;100830;;;21;42
33432;BME280;35187;31.882;34.828;2023-04-25T07:25:33;100820;;;21;43
33432;BME280;35187;31.882;34.828;2023-04-25T07:28:09;100820;;;21;42
33432;BME280;35187;31.882;34.828;2023-04-25T07:30:42;100810;;;21;41
33432;BME280;35187;31.882;34.828;2023-04-25T07:33:11;100810;;;21;41
33432;BME280;35187;31.882;34.828;2023-04-25T07:35:45;100810;;;21;40
33432;BME280;35187;31.882;34.828;2023-04-25T07:38:20;100810;;;21;39
33432;BME280;35187;31.882;34.828;2023-04-25T07:41:03;100800;;;21;39
33432;BME280;35187;31.882;34.828;2023-04-25T07:43:34;100800;;;21;40
33432;BME280;35187;31.882;34.828;2023-04-25T07:46:03;100790;;;21;39
33432;BME280;35187;31.882;34.828;2023-04-25T07:48:32;100790;;;21;38
33432;BME280;35187;31.882;34.828;2023-04-25T07:51:01;100790;;;21;38
33432;BME280;35187;31.882;34.828;2023-04-25T07:53:30;100790;;;21;38
33432;BME280;35187;31.882;34.828;2023-04-25T07:55:59;100790;;;21;38
33432;BME280;35187;31.882;34.828;2023-04-25T07:58:28;100800;;;21;38
33432;BME280;35187;31.882;34.828;2023-04-25T08:00:56;100790;;;21;39
33432;BME280;35187;31.882;34.828;2023-04-25T08:03:25;100790;;;21;38
33432;BME280;35187;31.882;34.828;2023-04-25T08:05:54;100790;;;21;38
33432;BME280;35187;31.882;34.828;2023-04-25T08:08:24;100790;;;21;37
33432;BME280;35187;31.882;34.828;2023-04-25T08:10:53;100780;;;21;37
33432;BME280;35187;31.882;34.828;2023-04-25T08:13:22;100780;;;21;38
33432;BME280;35187;31.882;34.828;2023-04-25T08:15:53;100770;;;21;38
33432;BME280;35187;31.882;34.828;2023-04-25T08:18:21;100770;;;21;37
33432;BME280;35187;31.882;34.828;2023-04-25T08:20:51;100770;;;21;36
33432;BME280;35187;31.882;34.828;2023-04-25T08:23:21;100760;;;21;37
33432;BME280;35187;31.882;34.828;2023-04-25T08:25:50;100760;;;21;39
33432;BME280;35187;31.882;34.828;2023-04-25T08:28:19;100760;;;21;40
33432;BME280;35187;31.882;34.828;2023-04-25T08:30:49;100760;;;21;39
33432;BME280;35187;31.882;34.828;2023-04-25T08:33:17;100760;;;21;38
33432;BME280;35187;31.882;34.828;2023-04-25T08:35:46;100760;;;21;39
33432;BME280;35187;31.882;34.828;2023-04-25T08:38:16;100760;;;21;38
33432;BME280;35187;31.882;34.828;2023-04-25T08:40:50;100750;;;21;38
33432;BME280;35187;31.882;34.828;2023-04-25T08:43:31;100750;;;21;38
33432;BME280;35187;31.882;34.828;2023-04-25T08:46:01;100750;;;21;39
33432;BME280;35187;31.882;34.828;2023-04-25T08:48:32;100750;;;21;39
33432;BME280;35187;31.882;34.828;2023-04-25T08:51:03;100750;;;21;39
33432;BME280;35187;31.882;34.828;2023-04-25T08:53:36;100740;;;21;39
33432;BME280;35187;31.882;34.828;2023-04-25T08:56:11;100750;;;21;39
33432;BME280;35187;31.882;34.828;2023-04-25T08:58:47;100750;;;21;39
33432;BME280;35187;31.882;34.828;2023-04-25T09:01:16;100750;;;21;40
33432;BME280;35187;31.882;34.828;2023-04-25T09:03:47;100740;;;21;40
33432;BME280;35187;31.882;34.828;2023-04-25T09:06:30;100740;;;21;40
33432;BME280;35187;31.882;34.828;2023-04-25T09:09:02;100740;;;21;40
33432;BME280;35187;31.882;34.828;2023-04-25T09:11:37;100730;;;21;40
33432;BME280;35187;31.882;34.828;2023-04-25T09:14:14;100730;;;21;40
33432;BME280;35187;31.882;34.828;2023-04-25T09:17:05;100730;;;21;41
33432;BME280;35187;31.882;34.828;2023-04-25T09:19:36;100720;;;21;41
33432;BME280;35187;31.882;34.828;2023-04-25T09:22:06;100720;;;21;41
33432;BME280;35187;31.882;34.828;2023-04-25T09:24:37;100720;;;21;41
33432;BME280;35187;31.882;34.828;2023-04-25T09:27:08;100720;;;21;41
33432;BME280;35187;31.882;34.828;2023-04-25T09:29:38;100720;;;21;41
33432;BME280;35187;31.882;34.828;2023-04-25T09:32:17;100720;;;21;41
33432;BME280;35187;31.882;34.828;2023-04-25T09:34:48;100720;;;21;41
33432;BME280;35187;31.882;34.828;2023-04-25T09:37:18;100720;;;21;42
33432;BME280;35187;31.882;34.828;2023-04-25T09:39:50;100720;;;21;42
33432;BME280;35187;31.882;34.828;2023-04-25T09:42:22;100720;;;21;42
33432;BME280;35187;31.882;34.828;2023-04-25T09:44:58;100720;;;21;42
33432;BME280;35187;31.882;34.828;2023-04-25T09:47:28;100720;;;21;42
33432;BME280;35187;31.882;34.828;2023-04-25T09:49:57;100720;;;21;42
33432;BME280;35187;31.882;34.828;2023-04-25T09:52:31;100710;;;21;42
33432;BME280;35187;31.882;34.828;2023-04-25T09:55:02;100710;;;21;42
33432;BME280;35187;31.882;34.828;2023-04-25T09:57:31;100710;;;21;42
33432;BME280;35187;31.882;34.828;2023-04-25T10:00:06;100710;;;21;42
33432;BME280;35187;31.882;34.828;2023-04-25T10:02:36;100710;;;21;42
33432;BME280;35187;31.882;34.828;2023-04-25T10:05:08;100700;;;21;42
33432;BME280;35187;31.882;34.828;2023-04-25T10:07:39;100710;;;21;42
33432;BME280;35187;31.882;34.828;2023-04-25T10:10:13;100710;;;21;42
33432;BME280;35187;31.882;34.828;2023-04-25T10:12:42;100710;;;21;42
33432;BME280;35187;31.882;34.828;2023-04-25T10:15:19;100700;;;21;43
33432;BME280;35187;31.882;34.828;2023-04-25T10:17:50;100710;;;21;43
33432;BME280;35187;31.882;34.828;2023-04-25T10:20:19;100710;;;21;43
33432;BME280;35187;31.882;34.828;2023-04-25T10:22:48;100710;;;21;43
33432;BME280;35187;31.882;34.828;2023-04-25T10:25:21;100710;;;21;43
33432;BME280;35187;31.882;34.828;2023-04-25T10:27:54;100700;;;21;43
33432;BME280;35187;31.882;34.828;2023-04-25T10:30:28;100700;;;21;43
33432;BME280;35187;31.882;34.828;2023-04-25T10:33:01;100700;;;21;43
33432;BME280;35187;31.882;34.828;2023-04-25T10:35:50;100690;;;21;43
33432;BME280;35187;31.882;34.828;2023-04-25T10:38:24;100690;;;21;43
33432;BME280;35187;31.882;34.828;2023-04-25T10:41:03;100700;;;21;43
33432;BME280;35187;31.882;34.828;2023-04-25T10:43:39;100700;;;21;44
33432;BME280;35187;31.882;34.828;2023-04-25T10:46:18;100690;;;21;43
33432;BME280;35187;31.882;34.828;2023-04-25T10:48:49;100690;;;21;44
33432;BME280;35187;31.882;34.828;2023-04-25T10:51:23;100690;;;21;44
33432;BME280;35187;31.882;34.828;2023-04-25T10:54:02;100690;;;21;44
33432;BME280;35187;31.882;34.828;2023-04-25T10:56:33;100690;;;21;44
33432;BME280;35187;31.882;34.828;2023-04-25T10:59:07;100700;;;21;44
33432;BME280;35187;31.882;34.828;2023-04-25T11:01:38;100700;;;21;45
33432;BME280;35187;31.882;34.828;2023-04-25T11:04:20;100700;;;21;45
33432;BME280;35187;31.882;34.828;2023-04-25T11:07:05;100700;;;21;45
33432;BME280;35187;31.882;34.828;2023-04-25T11:09:39;100700;;;21;45
33432;BME280;35187;31.882;34.828;2023-04-25T11:12:09;100700;;;21;45
33432;BME280;35187;31.882;34.828;2023-04-25T11:14:38;100700;;;21;45
33432;BME280;35187;31.882;34.828;2023-04-25T11:17:07;100690;;;21;45
33432;BME280;35187;31.882;34.828;2023-04-25T11:19:36;100700;;;21;45
33432;BME280;35187;31.882;34.828;2023-04-25T11:22:10;100700;;;21;46
33432;BME280;35187;31.882;34.828;2023-04-25T11:24:40;100700;;;21;46
33432;BME280;35187;31.882;34.828;2023-04-25T11:27:09;100700;;;21;46
33432;BME280;35187;31.882;34.828;2023-04-25T11:29:38;100700;;;21;46
33432;BME280;35187;31.882;34.828;2023-04-25T11:32:08;100700;;;21;46
33432;BME280;35187;31.882;34.828;2023-04-25T11:34:37;100700;;;21;46
33432;BME280;35187;31.882;34.828;2023-04-25T11:37:07;100700;;;21;46
33432;BME280;35187;31.882;34.828;2023-04-25T11:39:37;100690;;;21;46
33432;BME280;35187;31.882;34.828;2023-04-25T11:42:06;100690;;;21;46
33432;BME280;35187;31.882;34.828;2023-04-25T11:44:35;100690;;;21;46
33432;BME280;35187;31.882;34.828;2023-04-25T11:47:06;100690;;;21;46
33432;BME280;35187;31.882;34.828;2023-04-25T11:49:36;100690;;;21;46
33432;BME280;35187;31.882;34.828;2023-04-25T11:52:07;100680;;;21;46
33432;BME280;35187;31.882;34.828;2023-04-25T11:54:36;100680;;;21;46
33432;BME280;35187;31.882;34.828;2023-04-25T11:57:05;100680;;;21;45
33432;BME280;35187;31.882;34.828;2023-04-25T11:59:35;100680;;;21;45
33432;BME280;35187;31.882;34.828;2023-04-25T12:02:04;100680;;;21;45
33432;BME280;35187;31.882;34.828;2023-04-25T12:04:33;100680;;;21;45
33432;BME280;35187;31.882;34.828;2023-04-25T12:07:02;100680;;;21;45
33432;BME280;35187;31.882;34.828;2023-04-25T12:09:32;100670;;;21;45
33432;BME280;35187;31.882;34.828;2023-04-25T12:12:02;100680;;;21;45
33432;BME280;35187;31.882;34.828;2023-04-25T12:14:32;100670;;;21;45
33432;BME280;35187;31.882;34.828;2023-04-25T12:17:03;100670;;;21;45
33432;BME280;35187;31.882;34.828;2023-04-25T12:19:34;100680;;;21;45
33432;BME280;35187;31.882;34.828;2023-04-25T12:22:10;100680;;;21;45
33432;BME280;35187;31.882;34.828;2023-04-25T12:24:47;100680;;;21;45
33432;BME280;35187;31.882;34.828;2023-04-25T12:27:17;100670;;;21;45
33432;BME280;35187;31.882;34.828;2023-04-25T12:29:52;100680;;;21;44
33432;BME280;35187;31.882;34.828;2023-04-25T12:32:21;100670;;;21;44
33432;BME280;35187;31.882;34.828;2023-04-25T12:34:51;100670;;;21;44
33432;BME280;35187;31.882;34.828;2023-04-25T12:37:20;100660;;;21;44
33432;BME280;35187;31.882;34.828;2023-04-25T12:39:48;100660;;;21;44
33432;BME280;35187;31.882;34.828;2023-04-25T12:42:17;100660;;;21;44
33432;BME280;35187;31.882;34.828;2023-04-25T12:44:52;100660;;;21;44
33432;BME280;35187;31.882;34.828;2023-04-25T12:47:23;100660;;;21;44
33432;BME280;35187;31.882;34.828;2023-04-25T12:50:01;100660;;;21;44
33432;BME280;35187;31.882;34.828;2023-04-25T12:52:48;100660;;;21;44
33432;BME280;35187;31.882;34.828;2023-04-25T12:55:16;100650;;;21;44
33432;BME280;35187;31.882;34.828;2023-04-25T12:57:46;100650;;;21;44
33432;BME280;35187;31.882;34.828;2023-04-25T13:00:16;100660;;;21;44
33432;BME280;35187;31.882;34.828;2023-04-25T13:02:46;100650;;;21;44
33432;BME280;35187;31.882;34.828;2023-04-25T13:05:15;100660;;;21;43
33432;BME280;35187;31.882;34.828;2023-04-25T13:07:44;100650;;;21;44
33432;BME280;35187;31.882;34.828;2023-04-25T13:10:13;100650;;;21;44
33432;BME280;35187;31.882;34.828;2023-04-25T13:12:42;100650;;;21;44
33432;BME280;35187;31.882;34.828;2023-04-25T13:15:11;100640;;;21;43
33432;BME280;35187;31.882;34.828;2023-04-25T13:17:41;100650;;;21;43
33432;BME280;35187;31.882;34.828;2023-04-25T13:20:10;100640;;;21;43
33432;BME280;35187;31.882;34.828;2023-04-25T13:22:40;100640;;;21;43
33432;BME280;35187;31.882;34.828;2023-04-25T13:25:09;100640;;;21;43
33432;BME280;35187;31.882;34.828;2023-04-25T13:27:38;100640;;;21;43
33432;BME280;35187;31.882;34.828;2023-04-25T13:30:13;100640;;;21;43
33432;BME280;35187;31.882;34.828;2023-04-25T13:32:43;100640;;;21;43
33432;BME280;35187;31.882;34.828;2023-04-25T13:35:13;100640;;;21;43
33432;BME280;35187;31.882;34.828;2023-04-25T13:37:42;100650;;;21;43
33432;BME280;35187;31.882;34.828;2023-04-25T13:40:11;100650;;;21;43
33432;BME280;35187;31.882;34.828;2023-04-25T13:42:41;100640;;;21;43
33432;BME280;35187;31.882;34.828;2023-04-25T13:45:10;100640;;;21;43
33432;BME280;35187;31.882;34.828;2023-04-25T13:47:39;100640;;;21;43
33432;BME280;35187;31.882;34.828;2023-04-25T13:50:09;100630;;;21;43
33432;BME280;35187;31.882;34.828;2023-04-25T13:52:38;100630;;;21;43
33432;BME280;35187;31.882;34.828;2023-04-25T13:55:12;100630;;;21;43
33432;BME280;35187;31.882;34.828;2023-04-25T13:57:42;100630;;;21;43
33432;BME280;35187;31.882;34.828;2023-04-25T14:00:12;100640;;;21;42
33432;BME280;35187;31.882;34.828;2023-04-25T14:02:41;100640;;;21;43
33432;BME280;35187;31.882;34.828;2023-04-25T14:05:26;100640;;;21;43
33432;BME280;35187;31.882;34.828;2023-04-25T14:07:56;100640;;;21;43
33432;BME280;35187;31.882;34.828;2023-04-25T14:10:26;100640;;;21;43
33432;BME280;35187;31.882;34.828;2023-04-25T14:12:56;100640;;;21;43
33432;BME280;35187;31.882;34.828;2023-04-25T14:15:27;100640;;;21;43
33432;BME280;35187;31.882;34.828;2023-04-25T14:17:57;100640;;;21;43
33432;BME280;35187;31.882;34.828;2023-04-25T14:20:31;100640;;;21;43
33432;BME280;35187;31.882;34.828;2023-04-25T14:22:59;100640;;;21;43
33432;BME280;35187;31.882;34.828;2023-04-25T14:25:30;100640;;;21;43
33432;BME280;35187;31.882;34.828;2023-04-25T14:27:59;100640;;;21;43
33432;BME280;35187;31.882;34.828;2023-04-25T14:30:28;100630;;;21;43
33432;BME280;35187;31.882;34.828;2023-04-25T14:32:56;100630;;;21;43
33432;BME280;35187;31.882;34.828;2023-04-25T14:35:26;100630;;;21;43
33432;BME280;35187;31.882;34.828;2023-04-25T14:37:55;100630;;;21;43
33432;BME280;35187;31.882;34.828;2023-04-25T14:40:25;100620;;;21;43